sensor_id;sensor_type;location;lat;lon;timestamp;pressure;altitude;pressure_sealevel;temperature;humidity
22964;BME280;11648;49.306;6.934;2024-03-22T00:00:32;99121.88;;;18.33;49.15
22964;BME280;11648;49.306;6.934;2024-03-22T00:02:58;99123.56;;;18.36;48.48
22964;BME280;11648;49.306;6.934;2024-03-22T00:05:24;99115.53;;;18.37;47.49
22964;BME280;11648;49.306;6.934;2024-03-22T00:07:50;99109.53;;;18.31;47.46
22964;BME280;11648;49.306;6.934;2024-03-22T00:10:16;99101.22;;;18.40;46.96
22964;BME280;11648;49.306;6.934;2024-03-22T00:12:41;99096.69;;;18.43;46.96
22964;BME280;11648;49.306;6.934;2024-03-22T00:15:07;99091.91;;;18.54;46.68
22964;BME280;11648;49.306;6.934;2024-03-22T00:17:33;99092.53;;;18.62;47.21
22964;BME280;11648;49.306;6.934;2024-03-22T00:20:05;99084.41;;;18.65;46.63
22964;BME280;11648;49.306;6.934;2024-03-22T00:22:31;99072.72;;;18.69;46.60
22964;BME280;11648;49.306;6.934;2024-03-22T00:24:57;99078.94;;;18.70;46.25
22964;BME280;11648;49.306;6.934;2024-03-22T00:27:23;99081.63;;;18.42;46.93
22964;BME280;11648;49.306;6.934;2024-03-22T00:29:49;99079.84;;;18.43;47.35
22964;BME280;11648;49.306;6.934;2024-03-22T00:32:14;99086.69;;;18.51;47.82
22964;BME280;11648;49.306;6.934;2024-03-22T00:34:41;99083.78;;;18.57;48.40
22964;BME280;11648;49.306;6.934;2024-03-22T00:37:07;99076.09;;;18.48;48.51
22964;BME280;11648;49.306;6.934;2024-03-22T00:39:33;99082.81;;;18.32;49.50
22964;BME280;11648;49.306;6.934;2024-03-22T00:41:58;99076.63;;;18.32;49.51
22964;BME280;11648;49.306;6.934;2024-03-22T00:44:24;99071.91;;;18.40;49.26
22964;BME280;11648;49.306;6.934;2024-03-22T00:46:50;99071.09;;;18.38;49.45
22964;BME280;11648;49.306;6.934;2024-03-22T00:49:16;99069.09;;;18.44;49.38
22964;BME280;11648;49.306;6.934;2024-03-22T00:51:42;99061.00;;;18.47;48.99
22964;BME280;11648;49.306;6.934;2024-03-22T00:54:09;99060.88;;;18.52;49.08
22964;BME280;11648;49.306;6.934;2024-03-22T00:56:35;99065.34;;;18.51;49.43
22964;BME280;11648;49.306;6.934;2024-03-22T00:59:01;99062.22;;;18.37;50.01
22964;BME280;11648;49.306;6.934;2024-03-22T01:01:27;99070.97;;;18.42;50.13
22964;BME280;11648;49.306;6.934;2024-03-22T01:03:53;99057.78;;;18.38;50.46
22964;BME280;11648;49.306;6.934;2024-03-22T01:06:19;99063.00;;;18.41;50.26
22964;BME280;11648;49.306;6.934;2024-03-22T01:08:49;99050.66;;;18.38;49.85
22964;BME280;11648;49.306;6.934;2024-03-22T01:11:15;99048.03;;;18.37;49.86
22964;BME280;11648;49.306;6.934;2024-03-22T01:13:41;99041.72;;;18.39;49.31
22964;BME280;11648;49.306;6.934;2024-03-22T01:16:07;99044.53;;;18.35;49.38
22964;BME280;11648;49.306;6.934;2024-03-22T01:18:36;99045.22;;;18.41;48.93
22964;BME280;11648;49.306;6.934;2024-03-22T01:21:02;99047.53;;;18.53;48.53
22964;BME280;11648;49.306;6.934;2024-03-22T01:23:28;99044.63;;;18.59;48.63
22964;BME280;11648;49.306;6.934;2024-03-22T01:25:54;99037.31;;;18.64;48.56
22964;BME280;11648;49.306;6.934;2024-03-22T01:28:19;99037.75;;;18.52;49.07
22964;BME280;11648;49.306;6.934;2024-03-22T01:30:45;99034.03;;;18.30;50.32
22964;BME280;11648;49.306;6.934;2024-03-22T01:33:11;99031.38;;;18.30;50.25
22964;BME280;11648;49.306;6.934;2024-03-22T01:35:37;99034.16;;;18.25;51.33
22964;BME280;11648;49.306;6.934;2024-03-22T01:38:03;99035.19;;;18.21;51.34
22964;BME280;11648;49.306;6.934;2024-03-22T01:40:29;99031.56;;;18.24;51.00
22964;BME280;11648;49.306;6.934;2024-03-22T01:42:59;99031.47;;;18.27;50.82
22964;BME280;11648;49.306;6.934;2024-03-22T01:45:25;99033.22;;;18.28;50.96
22964;BME280;11648;49.306;6.934;2024-03-22T01:47:52;99031.38;;;18.30;51.39
22964;BME280;11648;49.306;6.934;2024-03-22T01:50:22;99029.16;;;18.16;51.55
22964;BME280;11648;49.306;6.934;2024-03-22T01:52:48;99033.41;;;18.22;51.47
22964;BME280;11648;49.306;6.934;2024-03-22T01:55:14;99027.13;;;18.24;51.26
22964;BME280;11648;49.306;6.934;2024-03-22T01:57:40;99025.47;;;18.20;51.65
22964;BME280;11648;49.306;6.934;2024-03-22T02:00:11;99023.16;;;18.10;51.76
22964;BME280;11648;49.306;6.934;2024-03-22T02:02:40;99015.97;;;18.12;51.56
22964;BME280;11648;49.306;6.934;2024-03-22T02:05:13;99013.41;;;18.09;51.64
22964;BME280;11648;49.306;6.934;2024-03-22T02:07:39;99011.66;;;18.08;51.51
22964;BME280;11648;49.306;6.934;2024-03-22T02:10:05;99003.66;;;18.08;51.63
22964;BME280;11648;49.306;6.934;2024-03-22T02:12:34;99009.09;;;18.05;51.66
22964;BME280;11648;49.306;6.934;2024-03-22T02:15:00;99001.09;;;18.05;51.54
22964;BME280;11648;49.306;6.934;2024-03-22T02:17:28;99000.22;;;18.04;51.36
22964;BME280;11648;49.306;6.934;2024-03-22T02:19:54;99006.78;;;17.94;51.55
22964;BME280;11648;49.306;6.934;2024-03-22T02:22:20;99003.31;;;17.92;51.52
22964;BME280;11648;49.306;6.934;2024-03-22T02:24:46;99003.31;;;17.92;51.32
22964;BME280;11648;49.306;6.934;2024-03-22T02:27:12;99000.81;;;17.86;51.31
22964;BME280;11648;49.306;6.934;2024-03-22T02:29:38;99005.19;;;17.89;51.89
22964;BME280;11648;49.306;6.934;2024-03-22T02:32:05;98994.25;;;17.96;51.41
22964;BME280;11648;49.306;6.934;2024-03-22T02:34:30;98993.22;;;18.02;51.18
22964;BME280;11648;49.306;6.934;2024-03-22T02:36:56;98985.16;;;18.03;51.21
22964;BME280;11648;49.306;6.934;2024-03-22T02:39:22;98979.94;;;18.00;51.27
22964;BME280;11648;49.306;6.934;2024-03-22T02:41:48;98972.94;;;17.96;50.98
22964;BME280;11648;49.306;6.934;2024-03-22T02:44:14;98975.94;;;17.87;51.16
22964;BME280;11648;49.306;6.934;2024-03-22T02:46:40;98974.63;;;17.72;51.61
22964;BME280;11648;49.306;6.934;2024-03-22T02:49:05;98977.38;;;17.69;51.63
22964;BME280;11648;49.306;6.934;2024-03-22T02:51:31;98978.94;;;17.76;51.43
22964;BME280;11648;49.306;6.934;2024-03-22T02:53:57;98968.19;;;17.80;51.50
22964;BME280;11648;49.306;6.934;2024-03-22T02:56:23;98977.81;;;17.54;51.97
22964;BME280;11648;49.306;6.934;2024-03-22T02:58:49;98966.47;;;17.49;52.20
22964;BME280;11648;49.306;6.934;2024-03-22T03:01:15;98968.81;;;17.29;52.90
22964;BME280;11648;49.306;6.934;2024-03-22T03:03:41;98977.13;;;17.18;53.16
22964;BME280;11648;49.306;6.934;2024-03-22T03:06:07;98973.19;;;17.32;52.77
22964;BME280;11648;49.306;6.934;2024-03-22T03:08:34;98964.38;;;17.29;52.62
22964;BME280;11648;49.306;6.934;2024-03-22T03:11:00;98966.56;;;17.15;53.30
22964;BME280;11648;49.306;6.934;2024-03-22T03:13:26;98957.72;;;17.15;53.41
22964;BME280;11648;49.306;6.934;2024-03-22T03:15:51;98956.81;;;17.16;53.67
22964;BME280;11648;49.306;6.934;2024-03-22T03:18:17;98961.22;;;17.17;53.63
22964;BME280;11648;49.306;6.934;2024-03-22T03:20:43;98958.50;;;17.18;53.75
22964;BME280;11648;49.306;6.934;2024-03-22T03:23:09;98966.13;;;17.31;53.29
22964;BME280;11648;49.306;6.934;2024-03-22T03:25:35;98961.44;;;17.39;53.22
22964;BME280;11648;49.306;6.934;2024-03-22T03:28:01;98957.44;;;17.53;52.84
22964;BME280;11648;49.306;6.934;2024-03-22T03:30:29;98951.41;;;17.48;53.45
22964;BME280;11648;49.306;6.934;2024-03-22T03:32:55;98939.84;;;17.49;53.10
22964;BME280;11648;49.306;6.934;2024-03-22T03:35:21;98950.63;;;17.45;53.22
22964;BME280;11648;49.306;6.934;2024-03-22T03:37:47;98954.22;;;17.42;53.41
22964;BME280;11648;49.306;6.934;2024-03-22T03:40:13;98939.19;;;17.41;53.59
22964;BME280;11648;49.306;6.934;2024-03-22T03:42:39;98942.72;;;17.42;53.33
22964;BME280;11648;49.306;6.934;2024-03-22T03:45:05;98941.13;;;17.36;53.35
22964;BME280;11648;49.306;6.934;2024-03-22T03:47:31;98936.91;;;17.29;53.30
22964;BME280;11648;49.306;6.934;2024-03-22T03:49:57;98935.97;;;17.30;53.30
22964;BME280;11648;49.306;6.934;2024-03-22T03:52:23;98930.53;;;17.35;53.12
22964;BME280;11648;49.306;6.934;2024-03-22T03:54:49;98925.28;;;17.32;52.76
22964;BME280;11648;49.306;6.934;2024-03-22T03:57:15;98929.81;;;17.28;52.68
22964;BME280;11648;49.306;6.934;2024-03-22T03:59:41;98919.38;;;17.22;52.61
22964;BME280;11648;49.306;6.934;2024-03-22T04:02:07;98917.88;;;17.13;52.34
22964;BME280;11648;49.306;6.934;2024-03-22T04:04:33;98914.56;;;17.05;52.33
22964;BME280;11648;49.306;6.934;2024-03-22T04:06:58;98919.03;;;17.03;52.38
22964;BME280;11648;49.306;6.934;2024-03-22T04:09:24;98914.00;;;16.94;52.38
22964;BME280;11648;49.306;6.934;2024-03-22T04:11:50;98905.06;;;16.97;52.61
22964;BME280;11648;49.306;6.934;2024-03-22T04:14:16;98907.94;;;16.89;52.77
22964;BME280;11648;49.306;6.934;2024-03-22T04:16:42;98913.47;;;16.82;53.00
22964;BME280;11648;49.306;6.934;2024-03-22T04:19:08;98913.84;;;16.69;53.40
22964;BME280;11648;49.306;6.934;2024-03-22T04:21:33;98910.16;;;16.41;54.31
22964;BME280;11648;49.306;6.934;2024-03-22T04:23:59;98904.00;;;16.39;54.34
22964;BME280;11648;49.306;6.934;2024-03-22T04:26:25;98905.69;;;16.43;54.22
22964;BME280;11648;49.306;6.934;2024-03-22T04:28:51;98897.53;;;16.17;54.73
22964;BME280;11648;49.306;6.934;2024-03-22T04:31:17;98904.34;;;16.27;54.51
22964;BME280;11648;49.306;6.934;2024-03-22T04:33:43;98896.22;;;16.33;54.30
22964;BME280;11648;49.306;6.934;2024-03-22T04:36:08;98901.34;;;16.39;54.39
22964;BME280;11648;49.306;6.934;2024-03-22T04:38:35;98899.13;;;16.56;53.80
22964;BME280;11648;49.306;6.934;2024-03-22T04:41:01;98903.31;;;16.66;53.46
22964;BME280;11648;49.306;6.934;2024-03-22T04:43:28;98903.44;;;16.60;53.57
22964;BME280;11648;49.306;6.934;2024-03-22T04:45:53;98901.28;;;16.74;53.18
22964;BME280;11648;49.306;6.934;2024-03-22T04:48:21;98914.56;;;16.74;53.38
22964;BME280;11648;49.306;6.934;2024-03-22T04:50:51;98921.06;;;16.64;53.99
22964;BME280;11648;49.306;6.934;2024-03-22T04:53:17;98918.50;;;16.61;53.89
22964;BME280;11648;49.306;6.934;2024-03-22T04:55:44;98916.59;;;16.66;54.01
22964;BME280;11648;49.306;6.934;2024-03-22T04:58:14;98912.28;;;16.62;54.22
22964;BME280;11648;49.306;6.934;2024-03-22T05:00:42;98910.41;;;16.66;54.17
22964;BME280;11648;49.306;6.934;2024-03-22T05:03:09;98913.09;;;16.64;54.24
22964;BME280;11648;49.306;6.934;2024-03-22T05:05:35;98911.56;;;16.56;54.64
22964;BME280;11648;49.306;6.934;2024-03-22T05:08:02;98912.44;;;16.55;54.49
22964;BME280;11648;49.306;6.934;2024-03-22T05:10:29;98915.75;;;16.64;54.39
22964;BME280;11648;49.306;6.934;2024-03-22T05:12:58;98922.84;;;16.64;54.49
22964;BME280;11648;49.306;6.934;2024-03-22T05:15:25;98923.94;;;16.57;54.63
22964;BME280;11648;49.306;6.934;2024-03-22T05:17:51;98923.84;;;16.60;54.75
22964;BME280;11648;49.306;6.934;2024-03-22T05:20:17;98926.56;;;16.58;55.03
22964;BME280;11648;49.306;6.934;2024-03-22T05:22:43;98932.06;;;16.49;55.28
22964;BME280;11648;49.306;6.934;2024-03-22T05:25:09;98927.69;;;16.48;55.30
22964;BME280;11648;49.306;6.934;2024-03-22T05:27:36;98927.69;;;16.48;55.48
22964;BME280;11648;49.306;6.934;2024-03-22T05:30:02;98915.97;;;16.55;55.20
22964;BME280;11648;49.306;6.934;2024-03-22T05:32:30;98916.41;;;16.72;54.40
22964;BME280;11648;49.306;6.934;2024-03-22T05:34:56;98908.22;;;16.48;54.96
22964;BME280;11648;49.306;6.934;2024-03-22T05:37:22;98906.84;;;16.33;55.71
22964;BME280;11648;49.306;6.934;2024-03-22T05:39:48;98898.50;;;16.47;55.29
22964;BME280;11648;49.306;6.934;2024-03-22T05:42:15;98895.13;;;16.40;55.58
22964;BME280;11648;49.306;6.934;2024-03-22T05:44:40;98886.78;;;16.54;55.19
22964;BME280;11648;49.306;6.934;2024-03-22T05:47:06;98887.34;;;16.66;54.94
22964;BME280;11648;49.306;6.934;2024-03-22T05:49:32;98884.22;;;16.82;54.21
22964;BME280;11648;49.306;6.934;2024-03-22T05:51:58;98890.28;;;16.87;53.81
22964;BME280;11648;49.306;6.934;2024-03-22T05:54:24;98882.41;;;17.13;53.48
22964;BME280;11648;49.306;6.934;2024-03-22T05:56:50;98876.53;;;17.31;52.72
22964;BME280;11648;49.306;6.934;2024-03-22T05:59:16;98875.25;;;17.43;52.45
22964;BME280;11648;49.306;6.934;2024-03-22T06:01:42;98871.63;;;17.45;52.98
22964;BME280;11648;49.306;6.934;2024-03-22T06:04:08;98871.44;;;17.51;53.10
22964;BME280;11648;49.306;6.934;2024-03-22T06:06:35;98865.03;;;17.58;53.24
22964;BME280;11648;49.306;6.934;2024-03-22T06:09:04;98866.56;;;17.38;53.43
22964;BME280;11648;49.306;6.934;2024-03-22T06:11:34;98870.34;;;17.31;53.76
22964;BME280;11648;49.306;6.934;2024-03-22T06:14:00;98882.22;;;17.19;54.05
22964;BME280;11648;49.306;6.934;2024-03-22T06:16:26;98882.41;;;17.13;54.46
22964;BME280;11648;49.306;6.934;2024-03-22T06:18:52;98889.56;;;17.11;54.55
22964;BME280;11648;49.306;6.934;2024-03-22T06:21:18;98883.59;;;17.03;54.54
22964;BME280;11648;49.306;6.934;2024-03-22T06:23:51;98881.63;;;17.09;54.25
22964;BME280;11648;49.306;6.934;2024-03-22T06:26:17;98877.09;;;17.13;54.60
22964;BME280;11648;49.306;6.934;2024-03-22T06:28:44;98866.25;;;17.19;54.39
22964;BME280;11648;49.306;6.934;2024-03-22T06:31:10;98856.97;;;17.32;53.85
22964;BME280;11648;49.306;6.934;2024-03-22T06:33:36;98854.13;;;17.38;53.57
22964;BME280;11648;49.306;6.934;2024-03-22T06:36:02;98857.59;;;17.40;53.62
22964;BME280;11648;49.306;6.934;2024-03-22T06:38:29;98848.16;;;17.30;54.19
22964;BME280;11648;49.306;6.934;2024-03-22T06:40:55;98858.13;;;17.51;53.85
22964;BME280;11648;49.306;6.934;2024-03-22T06:43:21;98859.78;;;17.55;53.93
22964;BME280;11648;49.306;6.934;2024-03-22T06:45:46;98856.78;;;17.66;53.75
22964;BME280;11648;49.306;6.934;2024-03-22T06:48:13;98859.84;;;17.80;53.48
22964;BME280;11648;49.306;6.934;2024-03-22T06:50:41;98853.28;;;17.64;53.43
22964;BME280;11648;49.306;6.934;2024-03-22T06:53:08;98846.50;;;17.82;53.11
22964;BME280;11648;49.306;6.934;2024-03-22T06:55:35;98845.13;;;17.70;51.88
22964;BME280;11648;49.306;6.934;2024-03-22T06:58:01;98842.97;;;17.81;52.47
22964;BME280;11648;49.306;6.934;2024-03-22T07:00:28;98843.59;;;18.14;51.74
22964;BME280;11648;49.306;6.934;2024-03-22T07:02:54;98837.41;;;18.13;51.44
22964;BME280;11648;49.306;6.934;2024-03-22T07:05:21;98837.22;;;18.43;51.18
22964;BME280;11648;49.306;6.934;2024-03-22T07:07:47;98827.72;;;18.60;50.67
22964;BME280;11648;49.306;6.934;2024-03-22T07:10:15;98819.44;;;18.90;49.97
22964;BME280;11648;49.306;6.934;2024-03-22T07:12:41;98831.38;;;18.81;50.44
22964;BME280;11648;49.306;6.934;2024-03-22T07:15:07;98829.31;;;18.88;50.24
22964;BME280;11648;49.306;6.934;2024-03-22T07:17:33;98830.19;;;18.88;50.57
22964;BME280;11648;49.306;6.934;2024-03-22T07:19:59;98826.41;;;18.94;50.46
22964;BME280;11648;49.306;6.934;2024-03-22T07:22:25;98827.53;;;18.88;50.80
22964;BME280;11648;49.306;6.934;2024-03-22T07:24:51;98826.63;;;18.89;50.74
22964;BME280;11648;49.306;6.934;2024-03-22T07:27:17;98819.56;;;18.87;50.88
22964;BME280;11648;49.306;6.934;2024-03-22T07:29:46;98825.53;;;18.93;50.94
22964;BME280;11648;49.306;6.934;2024-03-22T07:32:12;98826.25;;;18.98;50.92
22964;BME280;11648;49.306;6.934;2024-03-22T07:34:38;98825.03;;;18.84;51.28
22964;BME280;11648;49.306;6.934;2024-03-22T07:37:04;98819.44;;;18.90;50.77
22964;BME280;11648;49.306;6.934;2024-03-22T07:39:30;98813.94;;;18.94;50.70
22964;BME280;11648;49.306;6.934;2024-03-22T07:41:56;98807.06;;;18.89;50.54
22964;BME280;11648;49.306;6.934;2024-03-22T07:44:22;98815.06;;;18.89;50.24
22964;BME280;11648;49.306;6.934;2024-03-22T07:46:50;98814.59;;;18.78;51.16
22964;BME280;11648;49.306;6.934;2024-03-22T07:49:16;98809.53;;;18.93;50.63
22964;BME280;11648;49.306;6.934;2024-03-22T07:51:42;98810.72;;;19.08;50.56
22964;BME280;11648;49.306;6.934;2024-03-22T07:54:07;98809.56;;;19.15;50.17
22964;BME280;11648;49.306;6.934;2024-03-22T07:56:33;98805.66;;;19.23;49.82
22964;BME280;11648;49.306;6.934;2024-03-22T07:58:59;98801.41;;;19.41;49.49
22964;BME280;11648;49.306;6.934;2024-03-22T08:01:25;98802.13;;;19.66;49.07
22964;BME280;11648;49.306;6.934;2024-03-22T08:03:51;98803.34;;;19.80;48.65
22964;BME280;11648;49.306;6.934;2024-03-22T08:06:17;98791.81;;;19.99;48.22
22964;BME280;11648;49.306;6.934;2024-03-22T08:08:44;98803.50;;;20.17;48.16
22964;BME280;11648;49.306;6.934;2024-03-22T08:11:10;98798.50;;;20.30;47.51
22964;BME280;11648;49.306;6.934;2024-03-22T08:13:36;98794.25;;;20.44;47.01
22964;BME280;11648;49.306;6.934;2024-03-22T08:16:02;98787.78;;;20.50;46.97
22964;BME280;11648;49.306;6.934;2024-03-22T08:18:27;98793.84;;;20.53;46.96
22964;BME280;11648;49.306;6.934;2024-03-22T08:20:53;98799.56;;;20.46;47.13
22964;BME280;11648;49.306;6.934;2024-03-22T08:23:20;98791.31;;;20.50;47.18
22964;BME280;11648;49.306;6.934;2024-03-22T08:25:48;98785.25;;;20.47;46.25
22964;BME280;11648;49.306;6.934;2024-03-22T08:28:14;98777.97;;;20.30;46.66
22964;BME280;11648;49.306;6.934;2024-03-22T08:30:41;98784.97;;;20.53;46.05
22964;BME280;11648;49.306;6.934;2024-03-22T08:33:08;98770.06;;;20.66;45.56
22964;BME280;11648;49.306;6.934;2024-03-22T08:35:34;98773.16;;;20.38;45.20
22964;BME280;11648;49.306;6.934;2024-03-22T08:38:00;98774.63;;;20.64;44.77
22964;BME280;11648;49.306;6.934;2024-03-22T08:40:26;98776.06;;;20.52;44.69
22964;BME280;11648;49.306;6.934;2024-03-22T08:42:53;98768.22;;;20.68;44.21
22964;BME280;11648;49.306;6.934;2024-03-22T08:45:19;98768.69;;;20.95;43.89
22964;BME280;11648;49.306;6.934;2024-03-22T08:47:45;98766.59;;;21.20;43.58
22964;BME280;11648;49.306;6.934;2024-03-22T08:50:13;98758.91;;;21.31;43.65
22964;BME280;11648;49.306;6.934;2024-03-22T08:52:40;98761.50;;;21.51;42.74
22964;BME280;11648;49.306;6.934;2024-03-22T08:55:06;98756.03;;;21.53;42.68
22964;BME280;11648;49.306;6.934;2024-03-22T08:57:33;98757.78;;;21.54;42.41
22964;BME280;11648;49.306;6.934;2024-03-22T08:59:59;98751.56;;;21.71;41.99
22964;BME280;11648;49.306;6.934;2024-03-22T09:02:25;98749.03;;;21.50;42.31
22964;BME280;11648;49.306;6.934;2024-03-22T09:04:55;98740.75;;;21.55;42.35
22964;BME280;11648;49.306;6.934;2024-03-22T09:07:21;98748.09;;;21.51;42.69
22964;BME280;11648;49.306;6.934;2024-03-22T09:09:49;98748.38;;;21.45;42.62
22964;BME280;11648;49.306;6.934;2024-03-22T09:12:15;98743.66;;;21.50;42.47
22964;BME280;11648;49.306;6.934;2024-03-22T09:14:41;98736.22;;;21.21;43.12
22964;BME280;11648;49.306;6.934;2024-03-22T09:17:07;98735.25;;;21.41;42.70
22964;BME280;11648;49.306;6.934;2024-03-22T09:19:33;98734.84;;;21.65;42.63
22964;BME280;11648;49.306;6.934;2024-03-22T09:21:59;98733.28;;;21.96;41.79
22964;BME280;11648;49.306;6.934;2024-03-22T09:24:25;98710.03;;;22.29;41.36
22964;BME280;11648;49.306;6.934;2024-03-22T09:26:51;98702.44;;;22.86;40.38
22964;BME280;11648;49.306;6.934;2024-03-22T09:29:18;98695.31;;;23.61;39.23
22964;BME280;11648;49.306;6.934;2024-03-22T09:31:44;98688.22;;;24.19;37.94
22964;BME280;11648;49.306;6.934;2024-03-22T09:34:12;98686.56;;;24.58;37.67
22964;BME280;11648;49.306;6.934;2024-03-22T09:36:38;98677.22;;;25.19;36.21
22964;BME280;11648;49.306;6.934;2024-03-22T09:39:04;98679.81;;;24.80;36.47
22964;BME280;11648;49.306;6.934;2024-03-22T09:41:32;98678.13;;;25.05;36.35
22964;BME280;11648;49.306;6.934;2024-03-22T09:43:59;98667.84;;;24.98;36.63
22964;BME280;11648;49.306;6.934;2024-03-22T09:46:28;98669.16;;;24.92;36.67
22964;BME280;11648;49.306;6.934;2024-03-22T09:48:55;98670.59;;;24.84;37.08
22964;BME280;11648;49.306;6.934;2024-03-22T09:51:24;98668.97;;;25.08;36.58
22964;BME280;11648;49.306;6.934;2024-03-22T09:53:52;98661.22;;;25.03;36.79
22964;BME280;11648;49.306;6.934;2024-03-22T09:56:21;98660.16;;;25.06;36.39
22964;BME280;11648;49.306;6.934;2024-03-22T09:58:47;98660.63;;;24.43;37.22
22964;BME280;11648;49.306;6.934;2024-03-22T10:01:13;98647.72;;;25.30;36.32
22964;BME280;11648;49.306;6.934;2024-03-22T10:03:39;98644.50;;;25.90;35.79
22964;BME280;11648;49.306;6.934;2024-03-22T10:06:06;98636.91;;;26.94;34.46
22964;BME280;11648;49.306;6.934;2024-03-22T10:08:32;98618.50;;;27.47;33.34
22964;BME280;11648;49.306;6.934;2024-03-22T10:11:01;98615.66;;;27.83;32.47
22964;BME280;11648;49.306;6.934;2024-03-22T10:13:28;98611.06;;;27.73;32.33
22964;BME280;11648;49.306;6.934;2024-03-22T10:15:56;98612.69;;;27.17;32.71
22964;BME280;11648;49.306;6.934;2024-03-22T10:18:22;98617.78;;;26.97;33.63
22964;BME280;11648;49.306;6.934;2024-03-22T10:20:59;98615.31;;;26.82;33.76
22964;BME280;11648;49.306;6.934;2024-03-22T10:23:25;98615.03;;;26.25;34.57
22964;BME280;11648;49.306;6.934;2024-03-22T10:25:51;98618.94;;;26.21;34.79
22964;BME280;11648;49.306;6.934;2024-03-22T10:28:17;98606.81;;;25.76;35.71
22964;BME280;11648;49.306;6.934;2024-03-22T10:30:44;98612.66;;;25.57;35.90
22964;BME280;11648;49.306;6.934;2024-03-22T10:33:10;98599.28;;;25.81;35.71
22964;BME280;11648;49.306;6.934;2024-03-22T10:35:37;98598.69;;;25.50;35.77
22964;BME280;11648;49.306;6.934;2024-03-22T10:38:04;98595.56;;;24.92;36.68
22964;BME280;11648;49.306;6.934;2024-03-22T10:40:30;98599.28;;;25.16;36.43
22964;BME280;11648;49.306;6.934;2024-03-22T10:42:56;98582.72;;;25.35;36.03
22964;BME280;11648;49.306;6.934;2024-03-22T10:45:23;98585.25;;;25.76;35.50
22964;BME280;11648;49.306;6.934;2024-03-22T10:47:53;98572.81;;;26.24;35.20
22964;BME280;11648;49.306;6.934;2024-03-22T10:50:22;98569.97;;;26.50;34.06
22964;BME280;11648;49.306;6.934;2024-03-22T10:52:55;98567.31;;;27.33;33.41
22964;BME280;11648;49.306;6.934;2024-03-22T10:55:30;98564.03;;;27.17;33.02
22964;BME280;11648;49.306;6.934;2024-03-22T10:57:58;98562.16;;;27.06;33.58
22964;BME280;11648;49.306;6.934;2024-03-22T11:00:37;98568.31;;;26.84;33.76
22964;BME280;11648;49.306;6.934;2024-03-22T11:03:03;98563.94;;;26.71;33.77
22964;BME280;11648;49.306;6.934;2024-03-22T11:05:30;98572.25;;;27.04;33.19
22964;BME280;11648;49.306;6.934;2024-03-22T11:08:05;98551.47;;;26.57;33.25
22964;BME280;11648;49.306;6.934;2024-03-22T11:10:35;98548.69;;;25.97;34.34
22964;BME280;11648;49.306;6.934;2024-03-22T11:13:04;98550.53;;;26.45;34.31
22964;BME280;11648;49.306;6.934;2024-03-22T11:15:31;98550.09;;;26.99;34.23
22964;BME280;11648;49.306;6.934;2024-03-22T11:17:57;98536.47;;;26.53;34.03
22964;BME280;11648;49.306;6.934;2024-03-22T11:20:23;98539.47;;;26.25;33.80
22964;BME280;11648;49.306;6.934;2024-03-22T11:22:51;98537.31;;;26.77;33.76
22964;BME280;11648;49.306;6.934;2024-03-22T11:25:17;98539.31;;;26.39;33.90
22964;BME280;11648;49.306;6.934;2024-03-22T11:27:45;98532.19;;;26.38;34.15
22964;BME280;11648;49.306;6.934;2024-03-22T11:30:11;98531.84;;;26.42;34.82
22964;BME280;11648;49.306;6.934;2024-03-22T11:32:37;98522.22;;;26.75;34.48
22964;BME280;11648;49.306;6.934;2024-03-22T11:35:12;98526.63;;;26.52;34.49
22964;BME280;11648;49.306;6.934;2024-03-22T11:37:39;98519.59;;;26.13;34.43
22964;BME280;11648;49.306;6.934;2024-03-22T11:40:08;98521.03;;;26.06;34.53
22964;BME280;11648;49.306;6.934;2024-03-22T11:42:37;98514.47;;;25.85;34.76
22964;BME280;11648;49.306;6.934;2024-03-22T11:45:04;98513.91;;;26.18;34.83
22964;BME280;11648;49.306;6.934;2024-03-22T11:47:33;98511.84;;;26.45;35.11
22964;BME280;11648;49.306;6.934;2024-03-22T11:49:59;98511.78;;;26.34;34.41
22964;BME280;11648;49.306;6.934;2024-03-22T11:52:25;98505.53;;;25.97;35.58
22964;BME280;11648;49.306;6.934;2024-03-22T11:54:52;98511.47;;;25.77;35.59
22964;BME280;11648;49.306;6.934;2024-03-22T11:57:20;98512.13;;;25.42;36.32
22964;BME280;11648;49.306;6.934;2024-03-22T11:59:46;98510.16;;;25.19;36.66
22964;BME280;11648;49.306;6.934;2024-03-22T12:02:12;98503.03;;;25.43;36.24
22964;BME280;11648;49.306;6.934;2024-03-22T12:04:46;98494.56;;;25.75;35.95
22964;BME280;11648;49.306;6.934;2024-03-22T12:07:16;98482.13;;;25.72;35.48
22964;BME280;11648;49.306;6.934;2024-03-22T12:09:43;98485.88;;;25.95;35.68
22964;BME280;11648;49.306;6.934;2024-03-22T12:12:11;98485.91;;;26.31;35.10
22964;BME280;11648;49.306;6.934;2024-03-22T12:14:40;98475.03;;;26.20;34.92
22964;BME280;11648;49.306;6.934;2024-03-22T12:17:06;98474.06;;;26.21;33.91
22964;BME280;11648;49.306;6.934;2024-03-22T12:19:33;98475.16;;;26.19;33.69
22964;BME280;11648;49.306;6.934;2024-03-22T12:21:59;98470.72;;;26.41;33.87
22964;BME280;11648;49.306;6.934;2024-03-22T12:24:26;98466.69;;;26.23;33.92
22964;BME280;11648;49.306;6.934;2024-03-22T12:26:53;98461.25;;;26.83;33.80
22964;BME280;11648;49.306;6.934;2024-03-22T12:29:20;98446.72;;;27.08;33.52
22964;BME280;11648;49.306;6.934;2024-03-22T12:31:46;98450.09;;;26.64;34.02
22964;BME280;11648;49.306;6.934;2024-03-22T12:34:12;98451.28;;;26.13;35.26
22964;BME280;11648;49.306;6.934;2024-03-22T12:36:38;98446.09;;;26.22;34.89
22964;BME280;11648;49.306;6.934;2024-03-22T12:39:04;98455.38;;;25.82;35.45
22964;BME280;11648;49.306;6.934;2024-03-22T12:41:30;98447.44;;;26.04;35.62
22964;BME280;11648;49.306;6.934;2024-03-22T12:43:57;98442.94;;;25.92;36.23
22964;BME280;11648;49.306;6.934;2024-03-22T12:46:25;98441.56;;;26.10;36.15
22964;BME280;11648;49.306;6.934;2024-03-22T12:48:51;98435.78;;;26.03;35.83
22964;BME280;11648;49.306;6.934;2024-03-22T12:51:18;98429.16;;;26.20;35.66
22964;BME280;11648;49.306;6.934;2024-03-22T12:53:44;98420.78;;;26.36;35.87
22964;BME280;11648;49.306;6.934;2024-03-22T12:56:09;98434.22;;;26.25;35.87